sensor_id;sensor_type;location;lat;lon;timestamp;P1;durP1;ratioP1;P2;durP2;ratioP2
18973;SDS011;9621;48.690;9.466;2023-08-07T00:00:43;4.97;;;1.63;;
18973;SDS011;9621;48.690;9.466;2023-08-07T00:03:10;2.28;;;1.50;;
18973;SDS011;9621;48.690;9.466;2023-08-07T00:05:45;2.45;;;1.40;;
18973;SDS011;9621;48.690;9.466;2023-08-07T00:08:12;3.88;;;1.70;;
18973;SDS011;9621;48.690;9.466;2023-08-07T00:10:39;1.65;;;1.30;;
18973;SDS011;9621;48.690;9.466;2023-08-07T00:13:06;3.45;;;1.50;;
18973;SDS011;9621;48.690;9.466;2023-08-07T00:15:32;3.72;;;1.40;;
18973;SDS011;9621;48.690;9.466;2023-08-07T00:17:59;2.10;;;1.30;;
18973;SDS011;9621;48.690;9.466;2023-08-07T00:20:26;2.60;;;1.40;;
18973;SDS011;9621;48.690;9.466;2023-08-07T00:22:55;2.05;;;1.50;;
18973;SDS011;9621;48.690;9.466;2023-08-07T00:25:22;3.13;;;1.33;;
18973;SDS011;9621;48.690;9.466;2023-08-07T00:27:48;4.78;;;1.50;;
18973;SDS011;9621;48.690;9.466;2023-08-07T00:30:15;4.47;;;1.80;;
18973;SDS011;9621;48.690;9.466;2023-08-07T00:32:42;4.00;;;1.70;;
18973;SDS011;9621;48.690;9.466;2023-08-07T00:35:09;2.33;;;1.40;;
18973;SDS011;9621;48.690;9.466;2023-08-07T00:37:36;2.88;;;1.55;;
18973;SDS011;9621;48.690;9.466;2023-08-07T00:40:05;2.40;;;1.45;;
18973;SDS011;9621;48.690;9.466;2023-08-07T00:42:33;2.90;;;1.40;;
18973;SDS011;9621;48.690;9.466;2023-08-07T00:44:59;1.90;;;1.40;;
18973;SDS011;9621;48.690;9.466;2023-08-07T00:47:27;3.33;;;1.50;;
18973;SDS011;9621;48.690;9.466;2023-08-07T00:49:54;2.35;;;1.45;;
18973;SDS011;9621;48.690;9.466;2023-08-07T00:52:22;2.08;;;1.35;;
18973;SDS011;9621;48.690;9.466;2023-08-07T00:54:49;3.00;;;1.88;;
18973;SDS011;9621;48.690;9.466;2023-08-07T00:57:17;5.47;;;1.48;;
18973;SDS011;9621;48.690;9.466;2023-08-07T00:59:47;5.75;;;1.70;;
18973;SDS011;9621;48.690;9.466;2023-08-07T01:02:15;2.47;;;1.70;;
18973;SDS011;9621;48.690;9.466;2023-08-07T01:04:42;6.20;;;1.70;;
18973;SDS011;9621;48.690;9.466;2023-08-07T01:07:09;2.53;;;1.38;;
18973;SDS011;9621;48.690;9.466;2023-08-07T01:09:35;2.15;;;1.33;;
18973;SDS011;9621;48.690;9.466;2023-08-07T01:12:06;3.25;;;1.50;;
18973;SDS011;9621;48.690;9.466;2023-08-07T01:14:42;4.63;;;1.80;;
18973;SDS011;9621;48.690;9.466;2023-08-07T01:17:18;6.05;;;1.85;;
18973;SDS011;9621;48.690;9.466;2023-08-07T01:19:46;5.13;;;1.80;;
18973;SDS011;9621;48.690;9.466;2023-08-07T01:22:15;3.50;;;1.52;;
18973;SDS011;9621;48.690;9.466;2023-08-07T01:24:44;5.22;;;1.60;;
18973;SDS011;9621;48.690;9.466;2023-08-07T01:27:15;2.67;;;1.45;;
18973;SDS011;9621;48.690;9.466;2023-08-07T01:29:52;4.13;;;1.58;;
18973;SDS011;9621;48.690;9.466;2023-08-07T01:32:24;2.97;;;1.63;;
18973;SDS011;9621;48.690;9.466;2023-08-07T01:34:55;2.78;;;1.48;;
18973;SDS011;9621;48.690;9.466;2023-08-07T01:37:24;3.40;;;1.60;;
18973;SDS011;9621;48.690;9.466;2023-08-07T01:39:53;4.03;;;1.63;;
18973;SDS011;9621;48.690;9.466;2023-08-07T01:42:21;2.90;;;1.40;;
18973;SDS011;9621;48.690;9.466;2023-08-07T01:44:48;4.00;;;1.70;;
18973;SDS011;9621;48.690;9.466;2023-08-07T01:47:14;3.90;;;1.70;;
18973;SDS011;9621;48.690;9.466;2023-08-07T01:49:41;5.07;;;1.58;;
18973;SDS011;9621;48.690;9.466;2023-08-07T01:52:08;4.25;;;1.40;;
18973;SDS011;9621;48.690;9.466;2023-08-07T01:54:37;4.22;;;1.85;;
18973;SDS011;9621;48.690;9.466;2023-08-07T01:57:04;3.00;;;1.40;;
18973;SDS011;9621;48.690;9.466;2023-08-07T01:59:32;3.25;;;1.50;;
18973;SDS011;9621;48.690;9.466;2023-08-07T02:01:58;2.45;;;1.67;;
18973;SDS011;9621;48.690;9.466;2023-08-07T02:04:25;7.35;;;2.05;;
18973;SDS011;9621;48.690;9.466;2023-08-07T02:06:52;3.17;;;1.67;;
18973;SDS011;9621;48.690;9.466;2023-08-07T02:09:19;5.18;;;1.42;;
18973;SDS011;9621;48.690;9.466;2023-08-07T02:11:47;3.30;;;1.73;;
18973;SDS011;9621;48.690;9.466;2023-08-07T02:14:14;4.75;;;1.58;;
18973;SDS011;9621;48.690;9.466;2023-08-07T02:16:41;5.72;;;1.83;;
18973;SDS011;9621;48.690;9.466;2023-08-07T02:19:08;3.53;;;1.50;;
18973;SDS011;9621;48.690;9.466;2023-08-07T02:21:35;2.88;;;1.50;;
18973;SDS011;9621;48.690;9.466;2023-08-07T02:24:01;3.72;;;1.92;;
18973;SDS011;9621;48.690;9.466;2023-08-07T02:26:28;3.00;;;1.65;;
18973;SDS011;9621;48.690;9.466;2023-08-07T02:28:56;5.25;;;1.95;;
18973;SDS011;9621;48.690;9.466;2023-08-07T02:31:23;3.17;;;1.52;;
18973;SDS011;9621;48.690;9.466;2023-08-07T02:33:50;1.85;;;1.50;;
18973;SDS011;9621;48.690;9.466;2023-08-07T02:36:17;2.97;;;1.50;;
18973;SDS011;9621;48.690;9.466;2023-08-07T02:38:44;3.00;;;1.70;;
18973;SDS011;9621;48.690;9.466;2023-08-07T02:41:11;5.00;;;1.60;;
18973;SDS011;9621;48.690;9.466;2023-08-07T02:43:37;3.10;;;1.80;;
18973;SDS011;9621;48.690;9.466;2023-08-07T02:46:05;3.78;;;1.60;;
18973;SDS011;9621;48.690;9.466;2023-08-07T02:48:32;2.72;;;1.70;;
18973;SDS011;9621;48.690;9.466;2023-08-07T02:50:59;3.53;;;1.55;;
18973;SDS011;9621;48.690;9.466;2023-08-07T02:53:26;3.80;;;1.67;;
18973;SDS011;9621;48.690;9.466;2023-08-07T02:55:53;5.32;;;1.70;;
18973;SDS011;9621;48.690;9.466;2023-08-07T02:58:19;3.05;;;1.60;;
18973;SDS011;9621;48.690;9.466;2023-08-07T03:00:46;4.03;;;2.15;;
18973;SDS011;9621;48.690;9.466;2023-08-07T03:03:15;3.05;;;1.85;;
18973;SDS011;9621;48.690;9.466;2023-08-07T03:05:47;4.47;;;1.90;;
18973;SDS011;9621;48.690;9.466;2023-08-07T03:08:15;3.47;;;1.45;;
18973;SDS011;9621;48.690;9.466;2023-08-07T03:10:42;2.40;;;1.63;;
18973;SDS011;9621;48.690;9.466;2023-08-07T03:13:09;3.90;;;1.77;;
18973;SDS011;9621;48.690;9.466;2023-08-07T03:15:35;2.22;;;1.58;;
18973;SDS011;9621;48.690;9.466;2023-08-07T03:18:02;3.38;;;1.48;;
18973;SDS011;9621;48.690;9.466;2023-08-07T03:20:30;5.28;;;1.90;;
18973;SDS011;9621;48.690;9.466;2023-08-07T03:22:57;3.83;;;2.10;;
18973;SDS011;9621;48.690;9.466;2023-08-07T03:25:24;5.10;;;1.80;;
18973;SDS011;9621;48.690;9.466;2023-08-07T03:27:51;5.70;;;1.73;;
18973;SDS011;9621;48.690;9.466;2023-08-07T03:30:18;3.10;;;1.70;;
18973;SDS011;9621;48.690;9.466;2023-08-07T03:32:45;4.10;;;1.77;;
18973;SDS011;9621;48.690;9.466;2023-08-07T03:35:11;5.18;;;1.90;;
18973;SDS011;9621;48.690;9.466;2023-08-07T03:37:40;3.45;;;1.70;;
18973;SDS011;9621;48.690;9.466;2023-08-07T03:40:07;4.35;;;1.90;;
18973;SDS011;9621;48.690;9.466;2023-08-07T03:42:34;6.25;;;1.80;;
18973;SDS011;9621;48.690;9.466;2023-08-07T03:45:01;5.68;;;1.90;;
18973;SDS011;9621;48.690;9.466;2023-08-07T03:47:28;3.90;;;1.98;;
18973;SDS011;9621;48.690;9.466;2023-08-07T03:49:55;4.18;;;1.50;;
18973;SDS011;9621;48.690;9.466;2023-08-07T03:52:21;4.90;;;1.83;;
18973;SDS011;9621;48.690;9.466;2023-08-07T03:54:50;3.70;;;1.95;;
18973;SDS011;9621;48.690;9.466;2023-08-07T03:57:16;4.00;;;2.22;;
18973;SDS011;9621;48.690;9.466;2023-08-07T03:59:43;4.78;;;2.08;;
18973;SDS011;9621;48.690;9.466;2023-08-07T04:02:10;3.90;;;1.80;;
18973;SDS011;9621;48.690;9.466;2023-08-07T04:04:37;7.20;;;1.85;;
18973;SDS011;9621;48.690;9.466;2023-08-07T04:07:04;4.88;;;1.80;;
18973;SDS011;9621;48.690;9.466;2023-08-07T04:09:31;4.85;;;1.67;;
18973;SDS011;9621;48.690;9.466;2023-08-07T04:11:59;4.95;;;1.60;;
18973;SDS011;9621;48.690;9.466;2023-08-07T04:14:26;11.35;;;2.22;;
18973;SDS011;9621;48.690;9.466;2023-08-07T04:16:53;4.82;;;1.80;;
18973;SDS011;9621;48.690;9.466;2023-08-07T04:19:20;5.45;;;1.88;;
18973;SDS011;9621;48.690;9.466;2023-08-07T04:21:47;5.15;;;2.08;;
18973;SDS011;9621;48.690;9.466;2023-08-07T04:24:13;3.40;;;1.50;;
18973;SDS011;9621;48.690;9.466;2023-08-07T04:26:40;4.53;;;2.10;;
18973;SDS011;9621;48.690;9.466;2023-08-07T04:29:08;6.80;;;2.25;;
18973;SDS011;9621;48.690;9.466;2023-08-07T04:31:35;3.33;;;1.85;;
18973;SDS011;9621;48.690;9.466;2023-08-07T04:34:02;3.72;;;1.58;;
18973;SDS011;9621;48.690;9.466;2023-08-07T04:36:29;5.32;;;1.92;;
18973;SDS011;9621;48.690;9.466;2023-08-07T04:38:56;2.30;;;1.60;;
18973;SDS011;9621;48.690;9.466;2023-08-07T04:41:23;3.35;;;1.83;;
18973;SDS011;9621;48.690;9.466;2023-08-07T04:43:50;4.10;;;1.60;;
18973;SDS011;9621;48.690;9.466;2023-08-07T04:46:18;2.80;;;1.50;;
18973;SDS011;9621;48.690;9.466;2023-08-07T04:48:45;5.43;;;2.00;;
18973;SDS011;9621;48.690;9.466;2023-08-07T04:51:12;4.32;;;1.90;;
18973;SDS011;9621;48.690;9.466;2023-08-07T04:53:40;7.15;;;1.73;;
18973;SDS011;9621;48.690;9.466;2023-08-07T04:56:07;4.63;;;2.00;;
18973;SDS011;9621;48.690;9.466;2023-08-07T04:58:34;5.72;;;2.00;;
18973;SDS011;9621;48.690;9.466;2023-08-07T05:01:01;4.60;;;1.85;;
18973;SDS011;9621;48.690;9.466;2023-08-07T05:03:29;2.45;;;1.70;;
18973;SDS011;9621;48.690;9.466;2023-08-07T05:05:59;8.80;;;2.05;;
18973;SDS011;9621;48.690;9.466;2023-08-07T05:08:27;8.45;;;2.00;;
18973;SDS011;9621;48.690;9.466;2023-08-07T05:10:54;2.38;;;2.08;;
18973;SDS011;9621;48.690;9.466;2023-08-07T05:13:21;3.47;;;1.52;;
18973;SDS011;9621;48.690;9.466;2023-08-07T05:15:48;2.72;;;1.70;;
18973;SDS011;9621;48.690;9.466;2023-08-07T05:18:15;4.90;;;2.25;;
18973;SDS011;9621;48.690;9.466;2023-08-07T05:20:43;6.97;;;1.92;;
18973;SDS011;9621;48.690;9.466;2023-08-07T05:23:10;2.42;;;1.80;;
18973;SDS011;9621;48.690;9.466;2023-08-07T05:25:37;4.22;;;1.83;;
18973;SDS011;9621;48.690;9.466;2023-08-07T05:28:04;2.67;;;1.75;;
18973;SDS011;9621;48.690;9.466;2023-08-07T05:30:31;3.53;;;1.77;;
18973;SDS011;9621;48.690;9.466;2023-08-07T05:32:58;5.75;;;1.75;;
18973;SDS011;9621;48.690;9.466;2023-08-07T05:35:25;4.25;;;1.58;;
18973;SDS011;9621;48.690;9.466;2023-08-07T05:37:53;4.57;;;1.67;;
18973;SDS011;9621;48.690;9.466;2023-08-07T05:40:20;4.05;;;2.03;;
18973;SDS011;9621;48.690;9.466;2023-08-07T05:42:47;3.25;;;1.67;;
18973;SDS011;9621;48.690;9.466;2023-08-07T05:45:13;4.60;;;2.08;;
18973;SDS011;9621;48.690;9.466;2023-08-07T05:47:40;2.78;;;1.60;;
18973;SDS011;9621;48.690;9.466;2023-08-07T05:50:08;4.88;;;1.52;;
18973;SDS011;9621;48.690;9.466;2023-08-07T05:52:35;3.28;;;1.80;;
18973;SDS011;9621;48.690;9.466;2023-08-07T05:55:03;3.92;;;1.80;;
18973;SDS011;9621;48.690;9.466;2023-08-07T05:57:31;4.05;;;1.58;;
18973;SDS011;9621;48.690;9.466;2023-08-07T05:59:58;5.13;;;1.77;;
18973;SDS011;9621;48.690;9.466;2023-08-07T06:02:24;3.22;;;1.85;;
18973;SDS011;9621;48.690;9.466;2023-08-07T06:04:51;4.13;;;1.70;;
18973;SDS011;9621;48.690;9.466;2023-08-07T06:07:19;3.78;;;1.80;;
18973;SDS011;9621;48.690;9.466;2023-08-07T06:09:46;3.42;;;1.50;;
18973;SDS011;9621;48.690;9.466;2023-08-07T06:12:14;3.53;;;1.88;;
18973;SDS011;9621;48.690;9.466;2023-08-07T06:14:41;3.13;;;1.83;;
18973;SDS011;9621;48.690;9.466;2023-08-07T06:17:08;3.58;;;1.75;;
18973;SDS011;9621;48.690;9.466;2023-08-07T06:19:35;3.35;;;1.85;;
18973;SDS011;9621;48.690;9.466;2023-08-07T06:22:02;4.05;;;1.85;;
18973;SDS011;9621;48.690;9.466;2023-08-07T06:24:29;3.72;;;1.95;;
18973;SDS011;9621;48.690;9.466;2023-08-07T06:26:55;3.75;;;1.67;;
18973;SDS011;9621;48.690;9.466;2023-08-07T06:29:24;3.25;;;1.67;;
18973;SDS011;9621;48.690;9.466;2023-08-07T06:31:50;4.50;;;1.67;;
18973;SDS011;9621;48.690;9.466;2023-08-07T06:34:17;3.47;;;1.75;;
18973;SDS011;9621;48.690;9.466;2023-08-07T06:36:45;2.22;;;1.45;;
18973;SDS011;9621;48.690;9.466;2023-08-07T06:39:12;2.88;;;1.67;;
18973;SDS011;9621;48.690;9.466;2023-08-07T06:41:39;3.28;;;1.63;;
18973;SDS011;9621;48.690;9.466;2023-08-07T06:44:05;4.65;;;1.80;;
18973;SDS011;9621;48.690;9.466;2023-08-07T06:46:34;3.00;;;1.63;;
18973;SDS011;9621;48.690;9.466;2023-08-07T06:49:01;5.40;;;1.67;;
18973;SDS011;9621;48.690;9.466;2023-08-07T06:51:28;3.60;;;1.50;;
18973;SDS011;9621;48.690;9.466;2023-08-07T06:53:54;2.45;;;1.80;;
18973;SDS011;9621;48.690;9.466;2023-08-07T06:56:21;2.65;;;1.50;;
18973;SDS011;9621;48.690;9.466;2023-08-07T06:58:48;2.85;;;1.52;;
18973;SDS011;9621;48.690;9.466;2023-08-07T07:01:15;3.08;;;1.70;;
18973;SDS011;9621;48.690;9.466;2023-08-07T07:03:44;3.47;;;1.60;;
18973;SDS011;9621;48.690;9.466;2023-08-07T07:06:12;3.33;;;1.95;;
18973;SDS011;9621;48.690;9.466;2023-08-07T07:08:38;3.63;;;1.45;;
18973;SDS011;9621;48.690;9.466;2023-08-07T07:11:05;4.53;;;1.70;;
18973;SDS011;9621;48.690;9.466;2023-08-07T07:13:33;3.55;;;1.45;;
18973;SDS011;9621;48.690;9.466;2023-08-07T07:16:00;4.80;;;1.45;;
18973;SDS011;9621;48.690;9.466;2023-08-07T07:18:28;3.28;;;1.52;;
18973;SDS011;9621;48.690;9.466;2023-08-07T07:20:59;3.47;;;1.40;;
18973;SDS011;9621;48.690;9.466;2023-08-07T07:23:26;3.00;;;1.38;;
18973;SDS011;9621;48.690;9.466;2023-08-07T07:25:53;3.08;;;1.45;;
18973;SDS011;9621;48.690;9.466;2023-08-07T07:28:20;2.67;;;1.35;;
18973;SDS011;9621;48.690;9.466;2023-08-07T07:30:47;2.10;;;1.30;;
18973;SDS011;9621;48.690;9.466;2023-08-07T07:33:15;3.72;;;1.30;;
18973;SDS011;9621;48.690;9.466;2023-08-07T07:35:42;2.65;;;1.45;;
18973;SDS011;9621;48.690;9.466;2023-08-07T07:38:11;2.53;;;1.80;;
18973;SDS011;9621;48.690;9.466;2023-08-07T07:40:37;2.90;;;1.33;;
18973;SDS011;9621;48.690;9.466;2023-08-07T07:43:04;2.25;;;1.20;;
18973;SDS011;9621;48.690;9.466;2023-08-07T07:45:31;3.88;;;1.40;;
18973;SDS011;9621;48.690;9.466;2023-08-07T07:47:58;1.92;;;1.30;;
18973;SDS011;9621;48.690;9.466;2023-08-07T07:50:25;2.42;;;1.50;;
18973;SDS011;9621;48.690;9.466;2023-08-07T07:52:52;3.60;;;1.45;;
18973;SDS011;9621;48.690;9.466;2023-08-07T07:55:21;2.45;;;1.40;;
18973;SDS011;9621;48.690;9.466;2023-08-07T07:57:47;3.67;;;1.50;;
18973;SDS011;9621;48.690;9.466;2023-08-07T08:00:15;3.00;;;1.48;;
18973;SDS011;9621;48.690;9.466;2023-08-07T08:02:43;2.95;;;1.17;;
18973;SDS011;9621;48.690;9.466;2023-08-07T08:05:10;5.30;;;1.33;;
18973;SDS011;9621;48.690;9.466;2023-08-07T08:07:38;2.67;;;1.10;;
18973;SDS011;9621;48.690;9.466;2023-08-07T08:10:06;4.60;;;1.52;;
18973;SDS011;9621;48.690;9.466;2023-08-07T08:12:35;3.67;;;1.80;;
18973;SDS011;9621;48.690;9.466;2023-08-07T08:15:02;4.40;;;1.27;;
18973;SDS011;9621;48.690;9.466;2023-08-07T08:17:30;2.55;;;1.70;;
18973;SDS011;9621;48.690;9.466;2023-08-07T08:19:57;4.80;;;1.50;;
18973;SDS011;9621;48.690;9.466;2023-08-07T08:22:24;2.83;;;1.52;;
18973;SDS011;9621;48.690;9.466;2023-08-07T08:24:51;2.58;;;1.35;;
18973;SDS011;9621;48.690;9.466;2023-08-07T08:27:18;4.95;;;1.40;;
18973;SDS011;9621;48.690;9.466;2023-08-07T08:29:46;3.17;;;1.70;;
18973;SDS011;9621;48.690;9.466;2023-08-07T08:32:13;1.85;;;1.30;;
18973;SDS011;9621;48.690;9.466;2023-08-07T08:34:40;3.83;;;1.58;;
18973;SDS011;9621;48.690;9.466;2023-08-07T08:37:06;1.50;;;1.25;;
18973;SDS011;9621;48.690;9.466;2023-08-07T08:39:35;2.65;;;1.30;;
18973;SDS011;9621;48.690;9.466;2023-08-07T08:42:02;2.75;;;1.38;;
18973;SDS011;9621;48.690;9.466;2023-08-07T08:44:30;2.28;;;1.23;;
18973;SDS011;9621;48.690;9.466;2023-08-07T08:47:03;2.45;;;1.35;;
18973;SDS011;9621;48.690;9.466;2023-08-07T08:49:33;1.98;;;1.23;;
18973;SDS011;9621;48.690;9.466;2023-08-07T08:52:02;2.60;;;1.50;;
18973;SDS011;9621;48.690;9.466;2023-08-07T08:54:30;2.05;;;1.25;;
18973;SDS011;9621;48.690;9.466;2023-08-07T08:56:58;3.40;;;1.35;;
18973;SDS011;9621;48.690;9.466;2023-08-07T08:59:25;1.25;;;1.15;;
18973;SDS011;9621;48.690;9.466;2023-08-07T09:01:53;3.20;;;1.63;;
18973;SDS011;9621;48.690;9.466;2023-08-07T09:04:21;2.47;;;1.52;;
18973;SDS011;9621;48.690;9.466;2023-08-07T09:06:48;2.47;;;1.17;;
18973;SDS011;9621;48.690;9.466;2023-08-07T09:09:16;1.67;;;1.27;;
18973;SDS011;9621;48.690;9.466;2023-08-07T09:11:46;2.72;;;1.35;;
18973;SDS011;9621;48.690;9.466;2023-08-07T09:14:15;3.15;;;1.42;;
18973;SDS011;9621;48.690;9.466;2023-08-07T09:16:43;9.50;;;1.10;;
18973;SDS011;9621;48.690;9.466;2023-08-07T09:19:12;2.70;;;1.30;;
18973;SDS011;9621;48.690;9.466;2023-08-07T09:21:40;2.20;;;1.42;;
18973;SDS011;9621;48.690;9.466;2023-08-07T09:24:07;1.45;;;1.10;;
18973;SDS011;9621;48.690;9.466;2023-08-07T09:26:34;1.85;;;1.05;;
18973;SDS011;9621;48.690;9.466;2023-08-07T09:29:02;1.63;;;1.13;;
18973;SDS011;9621;48.690;9.466;2023-08-07T09:31:31;2.00;;;1.20;;
18973;SDS011;9621;48.690;9.466;2023-08-07T09:34:01;1.27;;;1.00;;
18973;SDS011;9621;48.690;9.466;2023-08-07T09:36:29;2.35;;;1.50;;
18973;SDS011;9621;48.690;9.466;2023-08-07T09:39:01;2.97;;;1.40;;
18973;SDS011;9621;48.690;9.466;2023-08-07T09:41:29;2.00;;;1.20;;
18973;SDS011;9621;48.690;9.466;2023-08-07T09:43:56;2.28;;;1.13;;
18973;SDS011;9621;48.690;9.466;2023-08-07T09:46:24;2.90;;;0.90;;
18973;SDS011;9621;48.690;9.466;2023-08-07T09:48:52;1.17;;;0.90;;
18973;SDS011;9621;48.690;9.466;2023-08-07T09:51:23;1.83;;;1.10;;
18973;SDS011;9621;48.690;9.466;2023-08-07T09:53:50;1.17;;;0.90;;
18973;SDS011;9621;48.690;9.466;2023-08-07T09:56:18;1.08;;;0.95;;
18973;SDS011;9621;48.690;9.466;2023-08-07T09:58:48;3.55;;;1.10;;
18973;SDS011;9621;48.690;9.466;2023-08-07T10:01:15;2.38;;;1.00;;
18973;SDS011;9621;48.690;9.466;2023-08-07T10:03:43;2.67;;;1.00;;
18973;SDS011;9621;48.690;9.466;2023-08-07T10:06:11;1.75;;;1.15;;
18973;SDS011;9621;48.690;9.466;2023-08-07T10:08:38;1.05;;;0.90;;
18973;SDS011;9621;48.690;9.466;2023-08-07T10:11:07;1.55;;;1.00;;
18973;SDS011;9621;48.690;9.466;2023-08-07T10:13:37;2.05;;;1.10;;
18973;SDS011;9621;48.690;9.466;2023-08-07T10:16:04;2.90;;;1.17;;
18973;SDS011;9621;48.690;9.466;2023-08-07T10:18:32;1.30;;;1.00;;
18973;SDS011;9621;48.690;9.466;2023-08-07T10:21:00;2.08;;;0.90;;
18973;SDS011;9621;48.690;9.466;2023-08-07T10:23:28;1.23;;;0.95;;
18973;SDS011;9621;48.690;9.466;2023-08-07T10:25:54;3.55;;;0.90;;
18973;SDS011;9621;48.690;9.466;2023-08-07T10:28:23;1.08;;;0.90;;
18973;SDS011;9621;48.690;9.466;2023-08-07T10:30:53;4.70;;;1.00;;
18973;SDS011;9621;48.690;9.466;2023-08-07T10:33:21;3.45;;;0.98;;
18973;SDS011;9621;48.690;9.466;2023-08-07T10:35:49;4.30;;;1.08;;
18973;SDS011;9621;48.690;9.466;2023-08-07T10:38:19;4.75;;;1.27;;
18973;SDS011;9621;48.690;9.466;2023-08-07T10:41:01;2.13;;;1.00;;
18973;SDS011;9621;48.690;9.466;2023-08-07T10:43:35;1.60;;;1.10;;
18973;SDS011;9621;48.690;9.466;2023-08-07T10:46:05;1.02;;;0.90;;
18973;SDS011;9621;48.690;9.466;2023-08-07T10:48:41;2.45;;;0.98;;
18973;SDS011;9621;48.690;9.466;2023-08-07T10:51:11;2.15;;;1.13;;
18973;SDS011;9621;48.690;9.466;2023-08-07T10:53:40;1.52;;;1.13;;
18973;SDS011;9621;48.690;9.466;2023-08-07T10:56:09;1.00;;;0.88;;
18973;SDS011;9621;48.690;9.466;2023-08-07T10:58:37;2.47;;;1.30;;
18973;SDS011;9621;48.690;9.466;2023-08-07T11:01:19;2.78;;;1.20;;
18973;SDS011;9621;48.690;9.466;2023-08-07T11:03:51;1.75;;;1.30;;
18973;SDS011;9621;48.690;9.466;2023-08-07T11:06:22;2.53;;;1.40;;
18973;SDS011;9621;48.690;9.466;2023-08-07T11:08:51;1.27;;;0.95;;
18973;SDS011;9621;48.690;9.466;2023-08-07T11:11:19;4.00;;;1.45;;
18973;SDS011;9621;48.690;9.466;2023-08-07T11:13:46;2.75;;;1.20;;
18973;SDS011;9621;48.690;9.466;2023-08-07T11:16:12;2.22;;;1.23;;
18973;SDS011;9621;48.690;9.466;2023-08-07T11:18:41;3.30;;;1.50;;
18973;SDS011;9621;48.690;9.466;2023-08-07T11:21:08;2.20;;;1.30;;
18973;SDS011;9621;48.690;9.466;2023-08-07T11:23:37;1.85;;;1.10;;
18973;SDS011;9621;48.690;9.466;2023-08-07T11:26:04;2.63;;;1.45;;
18973;SDS011;9621;48.690;9.466;2023-08-07T11:28:31;3.38;;;1.50;;
18973;SDS011;9621;48.690;9.466;2023-08-07T11:30:58;2.13;;;1.10;;
18973;SDS011;9621;48.690;9.466;2023-08-07T11:33:26;1.95;;;1.30;;
18973;SDS011;9621;48.690;9.466;2023-08-07T11:35:56;1.77;;;1.15;;
18973;SDS011;9621;48.690;9.466;2023-08-07T11:38:30;2.67;;;1.45;;
18973;SDS011;9621;48.690;9.466;2023-08-07T11:40:59;2.08;;;1.25;;
18973;SDS011;9621;48.690;9.466;2023-08-07T11:43:27;3.25;;;1.35;;
18973;SDS011;9621;48.690;9.466;2023-08-07T11:45:55;3.90;;;1.20;;
18973;SDS011;9621;48.690;9.466;2023-08-07T11:48:23;2.17;;;1.38;;
18973;SDS011;9621;48.690;9.466;2023-08-07T11:50:52;4.68;;;1.50;;
18973;SDS011;9621;48.690;9.466;2023-08-07T11:53:20;3.08;;;1.33;;
18973;SDS011;9621;48.690;9.466;2023-08-07T11:55:51;3.22;;;1.50;;
18973;SDS011;9621;48.690;9.466;2023-08-07T11:58:19;1.85;;;1.30;;
18973;SDS011;9621;48.690;9.466;2023-08-07T12:00:46;2.60;;;1.73;;
18973;SDS011;9621;48.690;9.466;2023-08-07T12:03:23;2.20;;;1.50;;
18973;SDS011;9621;48.690;9.466;2023-08-07T12:05:51;3.00;;;1.52;;
18973;SDS011;9621;48.690;9.466;2023-08-07T12:08:18;2.45;;;1.55;;
18973;SDS011;9621;48.690;9.466;2023-08-07T12:10:48;3.38;;;1.23;;
18973;SDS011;9621;48.690;9.466;2023-08-07T12:13:19;5.03;;;1.50;;
18973;SDS011;9621;48.690;9.466;2023-08-07T12:15:50;2.58;;;1.35;;
18973;SDS011;9621;48.690;9.466;2023-08-07T12:18:18;2.15;;;1.30;;
18973;SDS011;9621;48.690;9.466;2023-08-07T12:20:45;2.70;;;1.45;;
18973;SDS011;9621;48.690;9.466;2023-08-07T12:23:13;3.83;;;1.67;;
18973;SDS011;9621;48.690;9.466;2023-08-07T12:25:43;2.47;;;1.20;;
18973;SDS011;9621;48.690;9.466;2023-08-07T12:28:10;2.58;;;1.63;;
18973;SDS011;9621;48.690;9.466;2023-08-07T12:30:37;2.85;;;1.45;;
18973;SDS011;9621;48.690;9.466;2023-08-07T12:33:04;2.47;;;1.45;;
18973;SDS011;9621;48.690;9.466;2023-08-07T12:35:32;2.72;;;1.45;;
18973;SDS011;9621;48.690;9.466;2023-08-07T12:38:00;1.83;;;1.30;;
18973;SDS011;9621;48.690;9.466;2023-08-07T12:40:28;2.15;;;1.60;;
18973;SDS011;9621;48.690;9.466;2023-08-07T12:42:58;2.63;;;1.40;;
18973;SDS011;9621;48.690;9.466;2023-08-07T12:45:25;2.08;;;1.33;;
18973;SDS011;9621;48.690;9.466;2023-08-07T12:47:52;1.80;;;1.35;;
18973;SDS011;9621;48.690;9.466;2023-08-07T12:50:19;4.43;;;1.65;;
18973;SDS011;9621;48.690;9.466;2023-08-07T12:52:46;3.17;;;2.10;;
18973;SDS011;9621;48.690;9.466;2023-08-07T12:55:13;3.70;;;1.50;;
18973;SDS011;9621;48.690;9.466;2023-08-07T12:57:40;6.60;;;1.75;;
18973;SDS011;9621;48.690;9.466;2023-08-07T13:00:09;2.83;;;2.00;;
18973;SDS011;9621;48.690;9.466;2023-08-07T13:02:37;2.15;;;1.70;;
18973;SDS011;9621;48.690;9.466;2023-08-07T13:05:04;3.28;;;1.70;;
18973;SDS011;9621;48.690;9.466;2023-08-07T13:07:31;4.68;;;1.83;;
18973;SDS011;9621;48.690;9.466;2023-08-07T13:09:58;1.92;;;1.50;;
18973;SDS011;9621;48.690;9.466;2023-08-07T13:12:25;3.13;;;1.50;;
18973;SDS011;9621;48.690;9.466;2023-08-07T13:14:52;1.85;;;1.60;;
18973;SDS011;9621;48.690;9.466;2023-08-07T13:17:20;1.98;;;1.75;;
18973;SDS011;9621;48.690;9.466;2023-08-07T13:19:47;3.58;;;1.60;;
18973;SDS011;9621;48.690;9.466;2023-08-07T13:22:14;2.45;;;1.70;;
18973;SDS011;9621;48.690;9.466;2023-08-07T13:24:41;3.65;;;1.70;;
18973;SDS011;9621;48.690;9.466;2023-08-07T13:27:08;2.55;;;1.60;;
18973;SDS011;9621;48.690;9.466;2023-08-07T13:29:34;2.00;;;1.50;;
18973;SDS011;9621;48.690;9.466;2023-08-07T13:32:01;1.63;;;1.40;;
18973;SDS011;9621;48.690;9.466;2023-08-07T13:34:35;2.85;;;1.63;;
18973;SDS011;9621;48.690;9.466;2023-08-07T13:37:03;3.40;;;1.50;;
18973;SDS011;9621;48.690;9.466;2023-08-07T13:39:30;2.53;;;1.30;;
18973;SDS011;9621;48.690;9.466;2023-08-07T13:41:57;3.30;;;1.67;;
18973;SDS011;9621;48.690;9.466;2023-08-07T13:44:24;2.83;;;1.55;;
18973;SDS011;9621;48.690;9.466;2023-08-07T13:46:51;2.97;;;1.33;;
18973;SDS011;9621;48.690;9.466;2023-08-07T13:49:18;2.38;;;1.30;;
18973;SDS011;9621;48.690;9.466;2023-08-07T13:51:48;2.28;;;1.30;;
18973;SDS011;9621;48.690;9.466;2023-08-07T13:54:15;6.35;;;1.70;;
18973;SDS011;9621;48.690;9.466;2023-08-07T13:56:42;4.88;;;1.40;;
18973;SDS011;9621;48.690;9.466;2023-08-07T13:59:09;2.95;;;1.55;;
18973;SDS011;9621;48.690;9.466;2023-08-07T14:01:36;2.28;;;1.48;;
18973;SDS011;9621;48.690;9.466;2023-08-07T14:04:03;2.25;;;1.55;;
18973;SDS011;9621;48.690;9.466;2023-08-07T14:06:31;1.90;;;1.38;;
18973;SDS011;9621;48.690;9.466;2023-08-07T14:08:59;3.28;;;1.30;;
18973;SDS011;9621;48.690;9.466;2023-08-07T14:11:26;2.78;;;1.70;;
18973;SDS011;9621;48.690;9.466;2023-08-07T14:13:55;2.38;;;1.27;;
18973;SDS011;9621;48.690;9.466;2023-08-07T14:16:22;2.10;;;1.30;;
18973;SDS011;9621;48.690;9.466;2023-08-07T14:18:50;1.70;;;1.40;;
18973;SDS011;9621;48.690;9.466;2023-08-07T14:21:17;2.25;;;1.40;;
18973;SDS011;9621;48.690;9.466;2023-08-07T14:23:44;3.92;;;1.55;;
18973;SDS011;9621;48.690;9.466;2023-08-07T14:26:14;1.85;;;1.30;;
18973;SDS011;9621;48.690;9.466;2023-08-07T14:28:43;2.03;;;1.58;;
18973;SDS011;9621;48.690;9.466;2023-08-07T14:31:09;1.73;;;1.30;;
18973;SDS011;9621;48.690;9.466;2023-08-07T14:33:37;1.63;;;1.35;;
18973;SDS011;9621;48.690;9.466;2023-08-07T14:36:04;3.03;;;1.42;;
18973;SDS011;9621;48.690;9.466;2023-08-07T14:38:31;1.77;;;1.52;;
18973;SDS011;9621;48.690;9.466;2023-08-07T14:40:58;1.92;;;1.38;;
18973;SDS011;9621;48.690;9.466;2023-08-07T14:43:26;2.53;;;1.40;;
18973;SDS011;9621;48.690;9.466;2023-08-07T14:45:56;4.25;;;1.20;;
18973;SDS011;9621;48.690;9.466;2023-08-07T14:48:23;2.63;;;1.48;;
18973;SDS011;9621;48.690;9.466;2023-08-07T14:50:49;2.17;;;1.42;;
18973;SDS011;9621;48.690;9.466;2023-08-07T14:53:17;1.58;;;1.20;;
18973;SDS011;9621;48.690;9.466;2023-08-07T14:55:43;3.17;;;1.27;;
18973;SDS011;9621;48.690;9.466;2023-08-07T14:58:11;2.38;;;1.55;;
18973;SDS011;9621;48.690;9.466;2023-08-07T15:00:39;3.53;;;1.60;;
18973;SDS011;9621;48.690;9.466;2023-08-07T15:03:06;3.08;;;1.55;;